PWSweather.com
Personal Weather Stations
Station Observations
KPAEXPOR2
Wellington Estates, Export, PA 15632

Wellington EstatesExport, PA 15632

Lat: 40.446, Lon: -79.592

Elevation: 1286

Station Type: PWS1000-TD

http://www.westmorelandweather.com

Latest ConditionsUpdated 9:00:00 PM EST Saturday, Dec 10, 2016
Currently Today's Max Today's Min Today's Average
Temperature 21.5°F-5.8°C 24.4°F-4.2°C 21.5°F-5.8°C 22.8°F-5.1°C
Dew Point 7.0°F-13.9°C 10.7°F-11.8°C 2.5°F-16.4°C 8.1°F-13.3°C
Winds 0.2 mph W0.3 kmh W 10.8 mph S17.4 kmh S - 5.4 mph 8.7 kmh
Wind Gusts 0.7 mph1.1 kmh 15.2 mph24.5 kmh - -
Humidity 53% 60% 39% 53%
Pressure 30.50 in1032.8 mb 30.51 in1033.2 mb 30.44 in1030.8 mb -
Hour Temp Dew Point Humidity Winds Wind Gusts Pressure Precip Precip Rate Daily Precip Total
09:00 PM 21.5°F-5.8°C 7.0°F-13.9°C 53% 0.2 mph W0.3 kmh W 0.7 mph1.1 kmh 30.50 in1032.8 mb 0.00 in0.0 mm 0.00 in0.0 mm 0.00 in0.0 mm
08:45 PM 21.9°F-5.6°C 7.4°F-13.7°C 53% 0.6 mph WNW1.0 kmh WNW 1.6 mph2.6 kmh 30.50 in1032.8 mb 0.00 in0.0 mm 0.00 in0.0 mm 0.00 in0.0 mm
08:30 PM 21.9°F-5.6°C 7.4°F-13.7°C 53% 0.5 mph NW0.8 kmh NW 1.6 mph2.6 kmh 30.50 in1032.8 mb 0.00 in0.0 mm 0.00 in0.0 mm 0.00 in0.0 mm
08:15 PM 21.9°F-5.6°C 7.4°F-13.7°C 53% 1.3 mph S2.1 kmh S 2.2 mph3.5 kmh 30.50 in1032.8 mb 0.00 in0.0 mm 0.00 in0.0 mm 0.00 in0.0 mm
08:00 PM 21.9°F-5.6°C 7.4°F-13.7°C 53% 1.7 mph SSE2.7 kmh SSE 3.8 mph6.1 kmh 30.51 in1033.2 mb 0.00 in0.0 mm 0.00 in0.0 mm 0.00 in0.0 mm
07:45 PM 22.3°F-5.4°C 7.3°F-13.7°C 52% 0.7 mph SW1.1 kmh SW 1.6 mph2.6 kmh 30.51 in1033.2 mb 0.00 in0.0 mm 0.00 in0.0 mm 0.00 in0.0 mm
07:30 PM 22.6°F-5.2°C 8.0°F-13.3°C 53% 0.5 mph S0.8 kmh S 1.6 mph2.6 kmh 30.51 in1033.2 mb 0.00 in0.0 mm 0.00 in0.0 mm 0.00 in0.0 mm
07:15 PM 23.0°F-5.0°C 7.9°F-13.4°C 52% 1.0 mph SW1.6 kmh SW 2.2 mph3.5 kmh 30.50 in1032.8 mb 0.00 in0.0 mm 0.00 in0.0 mm 0.00 in0.0 mm
07:00 PM 23.0°F-5.0°C 8.4°F-13.1°C 53% 0.4 mph N0.6 kmh N 1.6 mph2.6 kmh 30.51 in1033.2 mb 0.00 in0.0 mm 0.00 in0.0 mm 0.00 in0.0 mm
06:45 PM 23.0°F-5.0°C 8.4°F-13.1°C 53% 0.9 mph S1.4 kmh S 1.6 mph2.6 kmh 30.50 in1032.8 mb 0.00 in0.0 mm 0.00 in0.0 mm 0.00 in0.0 mm
06:30 PM 23.0°F-5.0°C 7.9°F-13.4°C 52% 1.9 mph SSW3.1 kmh SSW 3.1 mph5.0 kmh 30.50 in1032.8 mb 0.00 in0.0 mm 0.00 in0.0 mm 0.00 in0.0 mm
06:15 PM 23.0°F-5.0°C 8.4°F-13.1°C 53% 2.5 mph S4.0 kmh S 3.8 mph6.1 kmh 30.51 in1033.2 mb 0.00 in0.0 mm 0.00 in0.0 mm 0.00 in0.0 mm
06:00 PM 22.8°F-5.1°C 7.8°F-13.4°C 52% 5.3 mph S8.5 kmh S 8.3 mph13.4 kmh 30.51 in1033.2 mb 0.00 in0.0 mm 0.00 in0.0 mm 0.00 in0.0 mm
05:45 PM 22.8°F-5.1°C 7.4°F-13.7°C 51% 4.2 mph S6.8 kmh S 6.9 mph11.1 kmh 30.51 in1033.2 mb 0.00 in0.0 mm 0.00 in0.0 mm 0.00 in0.0 mm
05:30 PM 22.8°F-5.1°C 6.9°F-13.9°C 50% 5.4 mph SW8.7 kmh SW 8.3 mph13.4 kmh 30.50 in1032.8 mb 0.00 in0.0 mm 0.00 in0.0 mm 0.00 in0.0 mm
05:15 PM 23.0°F-5.0°C 6.6°F-14.1°C 49% 6.4 mph SW10.3 kmh SW 7.6 mph12.2 kmh 30.50 in1032.8 mb 0.00 in0.0 mm 0.00 in0.0 mm 0.00 in0.0 mm
05:12 PM 23.0°F-5.0°C 6.6°F-14.1°C 49% 6.4 mph SW10.3 kmh SW 6.9 mph11.1 kmh 30.50 in1032.8 mb 0.00 in0.0 mm 0.00 in0.0 mm 0.00 in0.0 mm
05:00 PM 23.0°F-5.0°C 7.1°F-13.8°C 50% 5.5 mph SSW8.9 kmh SSW 9.8 mph15.8 kmh 30.50 in1032.8 mb 0.00 in0.0 mm 0.00 in0.0 mm 0.00 in0.0 mm
04:45 PM 23.3°F-4.8°C 7.9°F-13.4°C 51% 4.7 mph S7.6 kmh S 7.6 mph12.2 kmh 30.50 in1032.8 mb 0.00 in0.0 mm 0.00 in0.0 mm 0.00 in0.0 mm
04:30 PM 23.5°F-4.7°C 8.0°F-13.3°C 51% 5.5 mph SW8.9 kmh SW 8.3 mph13.4 kmh 30.49 in1032.5 mb 0.00 in0.0 mm 0.00 in0.0 mm 0.00 in0.0 mm
04:15 PM 23.5°F-4.7°C 8.0°F-13.3°C 51% 6.6 mph S10.6 kmh S 7.6 mph12.2 kmh 30.49 in1032.5 mb 0.00 in0.0 mm 0.00 in0.0 mm 0.00 in0.0 mm
04:11 PM 23.5°F-4.7°C 7.6°F-13.6°C 50% 6.6 mph SSW10.6 kmh SSW 6.9 mph11.1 kmh 30.50 in1032.8 mb 0.00 in0.0 mm 0.00 in0.0 mm 0.00 in0.0 mm
04:06 PM 23.7°F-4.6°C 7.3°F-13.7°C 49% 7.1 mph SSW11.4 kmh SSW 8.3 mph13.4 kmh 30.49 in1032.5 mb 0.00 in0.0 mm 0.00 in0.0 mm 0.00 in0.0 mm
04:00 PM 24.1°F-4.4°C 7.2°F-13.8°C 48% 4.6 mph SSW7.4 kmh SSW 8.3 mph13.4 kmh 30.49 in1032.5 mb 0.00 in0.0 mm 0.00 in0.0 mm 0.00 in0.0 mm
03:53 PM 23.9°F-4.5°C 6.5°F-14.2°C 47% 4.8 mph S7.7 kmh S 7.6 mph12.2 kmh 30.48 in1032.2 mb 0.00 in0.0 mm 0.00 in0.0 mm 0.00 in0.0 mm
03:51 PM 24.1°F-4.4°C 6.2°F-14.3°C 46% 6.9 mph SW11.1 kmh SW 7.6 mph12.2 kmh 30.49 in1032.5 mb 0.00 in0.0 mm 0.00 in0.0 mm 0.00 in0.0 mm
03:46 PM 24.1°F-4.4°C 6.7°F-14.1°C 47% 5.6 mph SW9.0 kmh SW 7.6 mph12.2 kmh 30.49 in1032.5 mb 0.00 in0.0 mm 0.00 in0.0 mm 0.00 in0.0 mm
03:41 PM 23.9°F-4.5°C 6.5°F-14.2°C 47% 6.3 mph S10.1 kmh S 7.6 mph12.2 kmh 30.49 in1032.5 mb 0.00 in0.0 mm 0.00 in0.0 mm 0.00 in0.0 mm
03:07 PM 24.1°F-4.4°C 2.6°F-16.3°C 39% 5.6 mph S9.0 kmh S 7.6 mph12.2 kmh 30.48 in1032.2 mb 0.00 in0.0 mm 0.00 in0.0 mm 0.00 in0.0 mm
03:06 PM 23.7°F-4.6°C 6.8°F-14.0°C 48% 6.0 mph S9.7 kmh S 8.3 mph13.4 kmh 30.48 in1032.2 mb 0.00 in0.0 mm 0.00 in0.0 mm 0.00 in0.0 mm
03:01 PM 23.5°F-4.7°C 6.7°F-14.1°C 48% 6.3 mph SSW10.1 kmh SSW 8.3 mph13.4 kmh 30.48 in1032.2 mb 0.00 in0.0 mm 0.00 in0.0 mm 0.00 in0.0 mm
02:56 PM 23.7°F-4.6°C 6.8°F-14.0°C 48% 7.5 mph SSW12.1 kmh SSW 8.3 mph13.4 kmh 30.48 in1032.2 mb 0.00 in0.0 mm 0.00 in0.0 mm 0.00 in0.0 mm
11:15 AM 23.5°F-4.7°C 5.8°F-14.6°C 46% 10.0 mph SSW16.1 kmh SSW 13.0 mph20.9 kmh 30.50 in1032.8 mb 0.00 in0.0 mm 0.00 in0.0 mm 0.00 in0.0 mm
11:00 AM 23.7°F-4.6°C 6.9°F-13.9°C 48% 7.8 mph W12.6 kmh W 11.4 mph18.3 kmh 30.50 in1032.8 mb 0.00 in0.0 mm 0.00 in0.0 mm 0.00 in0.0 mm
10:45 AM 24.1°F-4.4°C 7.3°F-13.7°C 48% 6.6 mph E10.6 kmh E 9.2 mph14.8 kmh 30.50 in1032.8 mb 0.00 in0.0 mm 0.00 in0.0 mm 0.00 in0.0 mm
10:30 AM 24.4°F-4.2°C 8.9°F-12.8°C 51% 6.2 mph SW10.0 kmh SW 11.4 mph18.3 kmh 30.51 in1033.2 mb 0.00 in0.0 mm 0.00 in0.0 mm 0.00 in0.0 mm
10:15 AM 24.1°F-4.4°C 8.6°F-13.0°C 51% 6.3 mph SW10.1 kmh SW 9.8 mph15.8 kmh 30.50 in1032.8 mb 0.00 in0.0 mm 0.00 in0.0 mm 0.00 in0.0 mm
10:00 AM 23.3°F-4.8°C 8.8°F-12.9°C 53% 9.2 mph S14.8 kmh S 13.0 mph20.9 kmh 30.50 in1032.8 mb 0.00 in0.0 mm 0.00 in0.0 mm 0.00 in0.0 mm
09:45 AM 22.4°F-5.3°C 9.2°F-12.7°C 56% 10.3 mph S16.6 kmh S 15.2 mph24.5 kmh 30.50 in1032.8 mb 0.00 in0.0 mm 0.00 in0.0 mm 0.00 in0.0 mm
09:30 AM 22.8°F-5.1°C 10.7°F-11.8°C 59% 7.2 mph SW11.6 kmh SW 10.7 mph17.2 kmh 30.50 in1032.8 mb 0.00 in0.0 mm 0.00 in0.0 mm 0.00 in0.0 mm
09:15 AM 21.9°F-5.6°C 9.8°F-12.3°C 59% 7.2 mph SSW11.6 kmh SSW 9.8 mph15.8 kmh 30.50 in1032.8 mb 0.00 in0.0 mm 0.00 in0.0 mm 0.00 in0.0 mm
09:00 AM 21.9°F-5.6°C 10.2°F-12.1°C 60% 7.3 mph SSW11.7 kmh SSW 10.7 mph17.2 kmh 30.51 in1033.2 mb 0.00 in0.0 mm 0.00 in0.0 mm 0.00 in0.0 mm
08:54 AM 21.9°F-5.6°C 8.6°F-13.0°C 56% 4.1 mph SW6.6 kmh SW 6.0 mph9.7 kmh 30.49 in1032.5 mb 0.00 in0.0 mm 0.00 in0.0 mm 0.00 in0.0 mm
08:53 AM 23.0°F-5.0°C 10.0°F-12.2°C 57% 3.8 mph N6.1 kmh N 5.4 mph8.7 kmh 30.45 in1031.2 mb 0.00 in0.0 mm 0.00 in0.0 mm 0.00 in0.0 mm
08:52 AM 23.0°F-5.0°C 9.2°F-12.7°C 55% 2.8 mph SSW4.5 kmh SSW 3.8 mph6.1 kmh 30.44 in1030.8 mb 0.00 in0.0 mm 0.00 in0.0 mm 0.00 in0.0 mm
08:46 AM 21.9°F-5.6°C 8.6°F-13.0°C 56% 4.1 mph SW6.6 kmh SW 6.0 mph9.7 kmh 30.50 in1032.8 mb 0.00 in0.0 mm 0.00 in0.0 mm 0.00 in0.0 mm
08:41 AM 21.9°F-5.6°C 8.6°F-13.0°C 56% 4.1 mph SW6.6 kmh SW 6.0 mph9.7 kmh 30.50 in1032.8 mb 0.00 in0.0 mm 0.00 in0.0 mm 0.00 in0.0 mm